sensor_id;sensor_type;location;lat;lon;timestamp;P1;durP1;ratioP1;P2;durP2;ratioP2
81960;SDS011;71462;50.650;6.888;2023-07-29T00:01:19;3.38;;;1.85;;
81960;SDS011;71462;50.650;6.888;2023-07-29T00:03:22;4.28;;;1.80;;
81960;SDS011;71462;50.650;6.888;2023-07-29T00:05:24;2.42;;;1.52;;
81960;SDS011;71462;50.650;6.888;2023-07-29T00:07:28;3.40;;;1.60;;
81960;SDS011;71462;50.650;6.888;2023-07-29T00:09:30;3.42;;;1.60;;
81960;SDS011;71462;50.650;6.888;2023-07-29T00:11:33;3.00;;;1.45;;
81960;SDS011;71462;50.650;6.888;2023-07-29T00:13:37;3.38;;;1.83;;
81960;SDS011;71462;50.650;6.888;2023-07-29T00:15:41;3.65;;;1.80;;
81960;SDS011;71462;50.650;6.888;2023-07-29T00:17:43;6.55;;;1.90;;
81960;SDS011;71462;50.650;6.888;2023-07-29T00:19:45;3.85;;;1.58;;
81960;SDS011;71462;50.650;6.888;2023-07-29T00:21:48;3.35;;;1.70;;
81960;SDS011;71462;50.650;6.888;2023-07-29T00:23:50;3.00;;;1.95;;
81960;SDS011;71462;50.650;6.888;2023-07-29T00:25:53;5.15;;;1.65;;
81960;SDS011;71462;50.650;6.888;2023-07-29T00:27:56;2.83;;;1.73;;
81960;SDS011;71462;50.650;6.888;2023-07-29T00:30:01;3.70;;;1.52;;
81960;SDS011;71462;50.650;6.888;2023-07-29T00:32:03;4.18;;;1.80;;
81960;SDS011;71462;50.650;6.888;2023-07-29T00:34:07;6.47;;;2.05;;
81960;SDS011;71462;50.650;6.888;2023-07-29T00:36:10;9.52;;;1.52;;
81960;SDS011;71462;50.650;6.888;2023-07-29T00:38:13;3.28;;;1.77;;
81960;SDS011;71462;50.650;6.888;2023-07-29T00:40:19;3.45;;;1.60;;
81960;SDS011;71462;50.650;6.888;2023-07-29T00:44:24;2.65;;;1.88;;
81960;SDS011;71462;50.650;6.888;2023-07-29T00:46:28;2.50;;;1.60;;
81960;SDS011;71462;50.650;6.888;2023-07-29T00:48:31;3.58;;;1.83;;
81960;SDS011;71462;50.650;6.888;2023-07-29T00:50:34;2.78;;;1.50;;
81960;SDS011;71462;50.650;6.888;2023-07-29T00:52:37;2.63;;;1.50;;
81960;SDS011;71462;50.650;6.888;2023-07-29T00:54:39;5.80;;;1.70;;
81960;SDS011;71462;50.650;6.888;2023-07-29T00:56:42;5.65;;;1.70;;
81960;SDS011;71462;50.650;6.888;2023-07-29T00:58:45;4.75;;;1.80;;
81960;SDS011;71462;50.650;6.888;2023-07-29T01:00:47;4.70;;;1.60;;
81960;SDS011;71462;50.650;6.888;2023-07-29T01:02:54;3.60;;;1.75;;
81960;SDS011;71462;50.650;6.888;2023-07-29T01:04:57;2.08;;;1.42;;
81960;SDS011;71462;50.650;6.888;2023-07-29T01:07:02;3.95;;;1.58;;
81960;SDS011;71462;50.650;6.888;2023-07-29T01:09:11;4.43;;;1.50;;
81960;SDS011;71462;50.650;6.888;2023-07-29T01:11:28;3.67;;;1.65;;
81960;SDS011;71462;50.650;6.888;2023-07-29T01:13:40;4.68;;;1.85;;
81960;SDS011;71462;50.650;6.888;2023-07-29T01:15:48;3.78;;;1.45;;
81960;SDS011;71462;50.650;6.888;2023-07-29T01:17:59;3.65;;;1.80;;
81960;SDS011;71462;50.650;6.888;2023-07-29T01:20:07;2.83;;;1.63;;
81960;SDS011;71462;50.650;6.888;2023-07-29T01:22:11;4.28;;;2.13;;
81960;SDS011;71462;50.650;6.888;2023-07-29T01:24:17;2.85;;;1.70;;
81960;SDS011;71462;50.650;6.888;2023-07-29T01:26:19;2.58;;;1.70;;
81960;SDS011;71462;50.650;6.888;2023-07-29T01:28:22;3.30;;;1.70;;
81960;SDS011;71462;50.650;6.888;2023-07-29T01:30:39;3.00;;;1.40;;
81960;SDS011;71462;50.650;6.888;2023-07-29T01:32:43;4.28;;;1.50;;
81960;SDS011;71462;50.650;6.888;2023-07-29T01:34:59;2.42;;;1.40;;
81960;SDS011;71462;50.650;6.888;2023-07-29T01:37:05;4.43;;;1.77;;
81960;SDS011;71462;50.650;6.888;2023-07-29T01:39:12;6.05;;;1.60;;
81960;SDS011;71462;50.650;6.888;2023-07-29T01:41:17;4.28;;;1.35;;
81960;SDS011;71462;50.650;6.888;2023-07-29T01:43:21;3.15;;;1.60;;
81960;SDS011;71462;50.650;6.888;2023-07-29T01:45:24;5.60;;;1.63;;
81960;SDS011;71462;50.650;6.888;2023-07-29T01:47:27;2.22;;;1.40;;
81960;SDS011;71462;50.650;6.888;2023-07-29T01:49:30;3.38;;;1.50;;
81960;SDS011;71462;50.650;6.888;2023-07-29T01:51:32;4.03;;;1.40;;
81960;SDS011;71462;50.650;6.888;2023-07-29T01:53:34;3.08;;;1.50;;
81960;SDS011;71462;50.650;6.888;2023-07-29T01:55:36;2.80;;;1.50;;
81960;SDS011;71462;50.650;6.888;2023-07-29T01:57:40;4.80;;;2.00;;
81960;SDS011;71462;50.650;6.888;2023-07-29T01:59:42;2.42;;;1.40;;
81960;SDS011;71462;50.650;6.888;2023-07-29T02:01:45;3.67;;;1.70;;
81960;SDS011;71462;50.650;6.888;2023-07-29T02:03:48;3.38;;;1.50;;
81960;SDS011;71462;50.650;6.888;2023-07-29T02:05:56;3.55;;;1.45;;
81960;SDS011;71462;50.650;6.888;2023-07-29T02:07:59;4.72;;;1.65;;
81960;SDS011;71462;50.650;6.888;2023-07-29T02:10:01;3.63;;;1.25;;
81960;SDS011;71462;50.650;6.888;2023-07-29T02:12:05;2.22;;;1.30;;
81960;SDS011;71462;50.650;6.888;2023-07-29T02:14:10;2.00;;;1.30;;
81960;SDS011;71462;50.650;6.888;2023-07-29T02:16:12;2.60;;;1.50;;
81960;SDS011;71462;50.650;6.888;2023-07-29T02:18:15;3.35;;;1.25;;
81960;SDS011;71462;50.650;6.888;2023-07-29T02:20:17;2.10;;;1.40;;
81960;SDS011;71462;50.650;6.888;2023-07-29T02:22:20;3.47;;;1.48;;
81960;SDS011;71462;50.650;6.888;2023-07-29T02:24:23;3.03;;;1.60;;
81960;SDS011;71462;50.650;6.888;2023-07-29T02:26:26;2.58;;;1.10;;
81960;SDS011;71462;50.650;6.888;2023-07-29T02:28:28;4.32;;;1.35;;
81960;SDS011;71462;50.650;6.888;2023-07-29T02:30:32;2.70;;;1.40;;
81960;SDS011;71462;50.650;6.888;2023-07-29T02:32:34;2.47;;;1.40;;
81960;SDS011;71462;50.650;6.888;2023-07-29T02:34:36;4.53;;;1.50;;
81960;SDS011;71462;50.650;6.888;2023-07-29T02:36:39;2.20;;;1.50;;
81960;SDS011;71462;50.650;6.888;2023-07-29T02:38:42;3.50;;;1.60;;
81960;SDS011;71462;50.650;6.888;2023-07-29T02:40:44;5.78;;;1.50;;
81960;SDS011;71462;50.650;6.888;2023-07-29T02:42:46;3.33;;;1.60;;
81960;SDS011;71462;50.650;6.888;2023-07-29T02:44:49;3.45;;;1.58;;
81960;SDS011;71462;50.650;6.888;2023-07-29T02:46:53;4.55;;;1.58;;
81960;SDS011;71462;50.650;6.888;2023-07-29T02:48:57;5.97;;;1.60;;
81960;SDS011;71462;50.650;6.888;2023-07-29T02:50:59;4.32;;;1.50;;
81960;SDS011;71462;50.650;6.888;2023-07-29T02:53:02;2.60;;;1.30;;
81960;SDS011;71462;50.650;6.888;2023-07-29T02:55:08;3.30;;;1.40;;
81960;SDS011;71462;50.650;6.888;2023-07-29T02:57:10;3.85;;;1.20;;
81960;SDS011;71462;50.650;6.888;2023-07-29T02:59:13;2.50;;;1.10;;
81960;SDS011;71462;50.650;6.888;2023-07-29T03:01:15;3.40;;;1.35;;
81960;SDS011;71462;50.650;6.888;2023-07-29T03:03:20;4.43;;;1.20;;
81960;SDS011;71462;50.650;6.888;2023-07-29T03:05:22;5.40;;;1.42;;
81960;SDS011;71462;50.650;6.888;2023-07-29T03:07:25;4.97;;;1.73;;
81960;SDS011;71462;50.650;6.888;2023-07-29T03:09:26;4.75;;;1.50;;
81960;SDS011;71462;50.650;6.888;2023-07-29T03:11:29;3.80;;;1.48;;
81960;SDS011;71462;50.650;6.888;2023-07-29T03:13:32;5.35;;;1.60;;
81960;SDS011;71462;50.650;6.888;2023-07-29T03:15:35;6.88;;;1.60;;
81960;SDS011;71462;50.650;6.888;2023-07-29T03:17:38;4.50;;;1.40;;
81960;SDS011;71462;50.650;6.888;2023-07-29T03:19:42;6.40;;;1.60;;
81960;SDS011;71462;50.650;6.888;2023-07-29T03:21:45;2.33;;;1.30;;
81960;SDS011;71462;50.650;6.888;2023-07-29T03:23:47;5.47;;;1.42;;
81960;SDS011;71462;50.650;6.888;2023-07-29T03:25:49;4.10;;;1.75;;
81960;SDS011;71462;50.650;6.888;2023-07-29T03:27:57;2.85;;;1.30;;
81960;SDS011;71462;50.650;6.888;2023-07-29T03:30:03;5.63;;;1.60;;
81960;SDS011;71462;50.650;6.888;2023-07-29T03:32:06;4.00;;;1.50;;
81960;SDS011;71462;50.650;6.888;2023-07-29T03:34:09;6.88;;;1.55;;
81960;SDS011;71462;50.650;6.888;2023-07-29T03:36:14;3.83;;;1.55;;
81960;SDS011;71462;50.650;6.888;2023-07-29T03:38:16;6.05;;;1.70;;
81960;SDS011;71462;50.650;6.888;2023-07-29T03:40:19;3.60;;;1.67;;
81960;SDS011;71462;50.650;6.888;2023-07-29T03:42:22;4.03;;;1.38;;
81960;SDS011;71462;50.650;6.888;2023-07-29T03:44:23;4.50;;;1.73;;
81960;SDS011;71462;50.650;6.888;2023-07-29T03:46:26;4.43;;;1.55;;
81960;SDS011;71462;50.650;6.888;2023-07-29T03:48:29;9.20;;;2.20;;
81960;SDS011;71462;50.650;6.888;2023-07-29T03:50:33;3.20;;;1.33;;
81960;SDS011;71462;50.650;6.888;2023-07-29T03:52:38;5.07;;;1.58;;
81960;SDS011;71462;50.650;6.888;2023-07-29T03:54:40;3.28;;;1.42;;
81960;SDS011;71462;50.650;6.888;2023-07-29T03:56:42;4.03;;;1.50;;
81960;SDS011;71462;50.650;6.888;2023-07-29T03:58:45;3.03;;;1.50;;
81960;SDS011;71462;50.650;6.888;2023-07-29T04:00:49;4.72;;;1.50;;
81960;SDS011;71462;50.650;6.888;2023-07-29T04:02:50;8.80;;;1.90;;
81960;SDS011;71462;50.650;6.888;2023-07-29T04:04:53;4.35;;;1.40;;
81960;SDS011;71462;50.650;6.888;2023-07-29T04:06:56;4.82;;;1.67;;
81960;SDS011;71462;50.650;6.888;2023-07-29T04:09:00;3.15;;;1.40;;
81960;SDS011;71462;50.650;6.888;2023-07-29T04:11:03;4.78;;;1.80;;
81960;SDS011;71462;50.650;6.888;2023-07-29T04:13:06;3.38;;;1.67;;
81960;SDS011;71462;50.650;6.888;2023-07-29T04:15:08;2.88;;;1.50;;
81960;SDS011;71462;50.650;6.888;2023-07-29T04:17:11;4.28;;;1.67;;
81960;SDS011;71462;50.650;6.888;2023-07-29T04:19:14;3.78;;;1.80;;
81960;SDS011;71462;50.650;6.888;2023-07-29T04:21:16;3.75;;;1.48;;
81960;SDS011;71462;50.650;6.888;2023-07-29T04:23:18;3.67;;;1.73;;
81960;SDS011;71462;50.650;6.888;2023-07-29T04:25:22;3.65;;;1.70;;
81960;SDS011;71462;50.650;6.888;2023-07-29T04:27:25;3.95;;;1.77;;
81960;SDS011;71462;50.650;6.888;2023-07-29T04:29:28;5.93;;;1.73;;
81960;SDS011;71462;50.650;6.888;2023-07-29T04:31:30;3.00;;;1.80;;
81960;SDS011;71462;50.650;6.888;2023-07-29T04:33:33;3.95;;;1.60;;
81960;SDS011;71462;50.650;6.888;2023-07-29T04:35:37;3.00;;;1.60;;
81960;SDS011;71462;50.650;6.888;2023-07-29T04:37:40;4.07;;;1.48;;
81960;SDS011;71462;50.650;6.888;2023-07-29T04:39:43;5.10;;;1.70;;
81960;SDS011;71462;50.650;6.888;2023-07-29T04:41:47;3.05;;;1.50;;
81960;SDS011;71462;50.650;6.888;2023-07-29T04:43:50;3.38;;;1.70;;
81960;SDS011;71462;50.650;6.888;2023-07-29T04:45:52;4.35;;;1.80;;
81960;SDS011;71462;50.650;6.888;2023-07-29T04:47:55;5.95;;;1.73;;
81960;SDS011;71462;50.650;6.888;2023-07-29T04:49:58;2.65;;;1.40;;
81960;SDS011;71462;50.650;6.888;2023-07-29T04:52:00;4.18;;;1.35;;
81960;SDS011;71462;50.650;6.888;2023-07-29T04:54:03;3.33;;;1.85;;
81960;SDS011;71462;50.650;6.888;2023-07-29T04:56:06;6.28;;;1.65;;
81960;SDS011;71462;50.650;6.888;2023-07-29T04:58:10;2.42;;;1.38;;
81960;SDS011;71462;50.650;6.888;2023-07-29T05:00:12;4.20;;;1.70;;
81960;SDS011;71462;50.650;6.888;2023-07-29T05:02:15;5.03;;;1.50;;
81960;SDS011;71462;50.650;6.888;2023-07-29T05:04:18;4.55;;;1.55;;
81960;SDS011;71462;50.650;6.888;2023-07-29T05:06:20;2.90;;;1.50;;
81960;SDS011;71462;50.650;6.888;2023-07-29T05:08:32;3.92;;;1.58;;
81960;SDS011;71462;50.650;6.888;2023-07-29T05:10:35;5.20;;;2.33;;
81960;SDS011;71462;50.650;6.888;2023-07-29T05:12:37;2.63;;;1.52;;
81960;SDS011;71462;50.650;6.888;2023-07-29T05:14:41;5.47;;;1.90;;
81960;SDS011;71462;50.650;6.888;2023-07-29T05:16:44;3.72;;;1.73;;
81960;SDS011;71462;50.650;6.888;2023-07-29T05:18:47;4.50;;;1.70;;
81960;SDS011;71462;50.650;6.888;2023-07-29T05:20:49;6.32;;;1.95;;
81960;SDS011;71462;50.650;6.888;2023-07-29T05:22:52;5.60;;;1.88;;
81960;SDS011;71462;50.650;6.888;2023-07-29T05:24:55;6.93;;;2.20;;
81960;SDS011;71462;50.650;6.888;2023-07-29T05:26:57;7.32;;;2.47;;
81960;SDS011;71462;50.650;6.888;2023-07-29T05:29:00;4.47;;;2.33;;
81960;SDS011;71462;50.650;6.888;2023-07-29T05:31:04;4.57;;;2.03;;
81960;SDS011;71462;50.650;6.888;2023-07-29T05:33:06;6.18;;;2.03;;
81960;SDS011;71462;50.650;6.888;2023-07-29T05:35:09;5.22;;;3.28;;
81960;SDS011;71462;50.650;6.888;2023-07-29T05:37:12;4.22;;;2.20;;
81960;SDS011;71462;50.650;6.888;2023-07-29T05:39:14;3.95;;;1.95;;
81960;SDS011;71462;50.650;6.888;2023-07-29T05:41:17;3.63;;;2.13;;
81960;SDS011;71462;50.650;6.888;2023-07-29T05:43:20;4.32;;;2.00;;
81960;SDS011;71462;50.650;6.888;2023-07-29T05:45:22;3.58;;;2.03;;
81960;SDS011;71462;50.650;6.888;2023-07-29T05:47:26;3.58;;;2.08;;
81960;SDS011;71462;50.650;6.888;2023-07-29T05:49:29;4.82;;;2.08;;
81960;SDS011;71462;50.650;6.888;2023-07-29T05:51:31;5.43;;;2.10;;
81960;SDS011;71462;50.650;6.888;2023-07-29T05:53:37;4.35;;;2.03;;
81960;SDS011;71462;50.650;6.888;2023-07-29T05:55:39;3.40;;;2.00;;
81960;SDS011;71462;50.650;6.888;2023-07-29T05:57:42;3.78;;;2.40;;
81960;SDS011;71462;50.650;6.888;2023-07-29T05:59:44;3.95;;;1.98;;
81960;SDS011;71462;50.650;6.888;2023-07-29T06:01:47;5.22;;;2.22;;
81960;SDS011;71462;50.650;6.888;2023-07-29T06:03:51;4.55;;;2.00;;
81960;SDS011;71462;50.650;6.888;2023-07-29T06:05:55;3.70;;;2.30;;
81960;SDS011;71462;50.650;6.888;2023-07-29T06:07:58;3.13;;;1.90;;
81960;SDS011;71462;50.650;6.888;2023-07-29T06:10:00;3.83;;;1.90;;
81960;SDS011;71462;50.650;6.888;2023-07-29T06:12:03;4.30;;;2.28;;
81960;SDS011;71462;50.650;6.888;2023-07-29T06:14:06;5.35;;;2.08;;
81960;SDS011;71462;50.650;6.888;2023-07-29T06:16:09;3.47;;;2.25;;
81960;SDS011;71462;50.650;6.888;2023-07-29T06:18:11;3.67;;;2.10;;
81960;SDS011;71462;50.650;6.888;2023-07-29T06:20:15;3.60;;;2.20;;
81960;SDS011;71462;50.650;6.888;2023-07-29T06:22:18;4.28;;;2.00;;
81960;SDS011;71462;50.650;6.888;2023-07-29T06:24:21;5.32;;;2.00;;
81960;SDS011;71462;50.650;6.888;2023-07-29T06:26:23;3.90;;;1.98;;
81960;SDS011;71462;50.650;6.888;2023-07-29T06:28:26;6.38;;;2.20;;
81960;SDS011;71462;50.650;6.888;2023-07-29T06:30:29;5.55;;;1.80;;
81960;SDS011;71462;50.650;6.888;2023-07-29T06:32:31;4.68;;;2.10;;
81960;SDS011;71462;50.650;6.888;2023-07-29T06:34:34;4.15;;;1.98;;
81960;SDS011;71462;50.650;6.888;2023-07-29T06:36:38;3.47;;;1.95;;
81960;SDS011;71462;50.650;6.888;2023-07-29T06:38:40;5.18;;;2.35;;
81960;SDS011;71462;50.650;6.888;2023-07-29T06:40:43;4.45;;;2.15;;
81960;SDS011;71462;50.650;6.888;2023-07-29T06:42:46;4.90;;;2.20;;
81960;SDS011;71462;50.650;6.888;2023-07-29T06:44:48;3.80;;;1.80;;
81960;SDS011;71462;50.650;6.888;2023-07-29T06:46:51;3.50;;;1.85;;
81960;SDS011;71462;50.650;6.888;2023-07-29T06:48:53;4.30;;;2.08;;
81960;SDS011;71462;50.650;6.888;2023-07-29T06:50:56;5.10;;;2.20;;
81960;SDS011;71462;50.650;6.888;2023-07-29T06:53:03;4.00;;;2.10;;
81960;SDS011;71462;50.650;6.888;2023-07-29T06:55:11;5.22;;;2.13;;
81960;SDS011;71462;50.650;6.888;2023-07-29T06:57:23;3.85;;;2.08;;
81960;SDS011;71462;50.650;6.888;2023-07-29T06:59:26;4.53;;;2.25;;
81960;SDS011;71462;50.650;6.888;2023-07-29T07:01:28;5.82;;;2.55;;
81960;SDS011;71462;50.650;6.888;2023-07-29T07:03:31;4.28;;;2.35;;
81960;SDS011;71462;50.650;6.888;2023-07-29T07:05:34;4.78;;;2.20;;
81960;SDS011;71462;50.650;6.888;2023-07-29T07:07:37;4.85;;;2.53;;
81960;SDS011;71462;50.650;6.888;2023-07-29T07:09:41;5.38;;;2.80;;
81960;SDS011;71462;50.650;6.888;2023-07-29T07:11:43;6.07;;;2.22;;
81960;SDS011;71462;50.650;6.888;2023-07-29T07:13:45;5.38;;;2.35;;
81960;SDS011;71462;50.650;6.888;2023-07-29T07:15:48;3.97;;;2.28;;
81960;SDS011;71462;50.650;6.888;2023-07-29T07:17:50;3.28;;;1.83;;
81960;SDS011;71462;50.650;6.888;2023-07-29T07:19:53;5.28;;;3.63;;
81960;SDS011;71462;50.650;6.888;2023-07-29T07:21:56;7.53;;;2.13;;
81960;SDS011;71462;50.650;6.888;2023-07-29T07:23:58;4.25;;;2.03;;
81960;SDS011;71462;50.650;6.888;2023-07-29T07:26:02;4.72;;;1.98;;
81960;SDS011;71462;50.650;6.888;2023-07-29T07:28:05;3.50;;;2.20;;
81960;SDS011;71462;50.650;6.888;2023-07-29T07:30:07;6.30;;;2.75;;
81960;SDS011;71462;50.650;6.888;2023-07-29T07:32:10;7.50;;;3.00;;
81960;SDS011;71462;50.650;6.888;2023-07-29T07:34:13;4.25;;;2.20;;
81960;SDS011;71462;50.650;6.888;2023-07-29T07:36:16;4.93;;;2.13;;
81960;SDS011;71462;50.650;6.888;2023-07-29T07:38:18;3.30;;;1.92;;
81960;SDS011;71462;50.650;6.888;2023-07-29T07:40:21;3.10;;;2.10;;
81960;SDS011;71462;50.650;6.888;2023-07-29T07:42:25;3.70;;;2.17;;
81960;SDS011;71462;50.650;6.888;2023-07-29T07:44:27;3.75;;;1.95;;
81960;SDS011;71462;50.650;6.888;2023-07-29T07:46:30;7.38;;;2.53;;
81960;SDS011;71462;50.650;6.888;2023-07-29T07:48:32;4.05;;;2.38;;
81960;SDS011;71462;50.650;6.888;2023-07-29T07:50:35;5.05;;;2.00;;
81960;SDS011;71462;50.650;6.888;2023-07-29T07:52:37;4.93;;;2.28;;
81960;SDS011;71462;50.650;6.888;2023-07-29T07:54:40;4.07;;;2.20;;
81960;SDS011;71462;50.650;6.888;2023-07-29T07:56:43;6.03;;;2.42;;
81960;SDS011;71462;50.650;6.888;2023-07-29T07:58:47;5.53;;;2.08;;
81960;SDS011;71462;50.650;6.888;2023-07-29T08:00:50;4.25;;;1.83;;
81960;SDS011;71462;50.650;6.888;2023-07-29T08:02:52;3.50;;;1.95;;
81960;SDS011;71462;50.650;6.888;2023-07-29T08:04:55;4.95;;;2.35;;
81960;SDS011;71462;50.650;6.888;2023-07-29T08:06:57;3.85;;;2.13;;
81960;SDS011;71462;50.650;6.888;2023-07-29T08:09:00;5.15;;;2.25;;
81960;SDS011;71462;50.650;6.888;2023-07-29T08:11:03;4.78;;;1.92;;
81960;SDS011;71462;50.650;6.888;2023-07-29T08:13:05;3.97;;;2.15;;
81960;SDS011;71462;50.650;6.888;2023-07-29T08:15:09;3.33;;;2.10;;
81960;SDS011;71462;50.650;6.888;2023-07-29T08:17:12;3.63;;;2.10;;
81960;SDS011;71462;50.650;6.888;2023-07-29T08:19:15;4.78;;;2.08;;
81960;SDS011;71462;50.650;6.888;2023-07-29T08:21:18;3.13;;;1.98;;
81960;SDS011;71462;50.650;6.888;2023-07-29T08:23:21;4.25;;;1.90;;
81960;SDS011;71462;50.650;6.888;2023-07-29T08:25:23;3.65;;;2.00;;
81960;SDS011;71462;50.650;6.888;2023-07-29T08:27:25;5.85;;;2.10;;
81960;SDS011;71462;50.650;6.888;2023-07-29T08:29:28;4.40;;;2.25;;
81960;SDS011;71462;50.650;6.888;2023-07-29T08:31:32;3.47;;;2.15;;
81960;SDS011;71462;50.650;6.888;2023-07-29T08:33:35;5.15;;;2.20;;
81960;SDS011;71462;50.650;6.888;2023-07-29T08:35:38;5.00;;;2.30;;
81960;SDS011;71462;50.650;6.888;2023-07-29T08:37:40;4.35;;;1.73;;
81960;SDS011;71462;50.650;6.888;2023-07-29T08:39:43;3.63;;;2.03;;
81960;SDS011;71462;50.650;6.888;2023-07-29T08:41:48;4.38;;;2.20;;
81960;SDS011;71462;50.650;6.888;2023-07-29T08:43:58;4.20;;;1.98;;
81960;SDS011;71462;50.650;6.888;2023-07-29T08:46:04;3.80;;;2.10;;
81960;SDS011;71462;50.650;6.888;2023-07-29T08:48:09;3.80;;;2.05;;
81960;SDS011;71462;50.650;6.888;2023-07-29T08:50:13;3.60;;;2.20;;
81960;SDS011;71462;50.650;6.888;2023-07-29T08:52:17;4.63;;;2.20;;
81960;SDS011;71462;50.650;6.888;2023-07-29T08:54:20;3.55;;;1.95;;
81960;SDS011;71462;50.650;6.888;2023-07-29T08:56:23;3.67;;;2.20;;
81960;SDS011;71462;50.650;6.888;2023-07-29T08:58:26;4.03;;;2.00;;
81960;SDS011;71462;50.650;6.888;2023-07-29T09:00:29;6.03;;;2.38;;
81960;SDS011;71462;50.650;6.888;2023-07-29T09:02:33;3.75;;;2.28;;
81960;SDS011;71462;50.650;6.888;2023-07-29T09:04:39;4.63;;;2.10;;
81960;SDS011;71462;50.650;6.888;2023-07-29T09:06:42;3.58;;;2.08;;
81960;SDS011;71462;50.650;6.888;2023-07-29T09:08:45;4.72;;;2.00;;
81960;SDS011;71462;50.650;6.888;2023-07-29T09:10:50;6.00;;;2.08;;
81960;SDS011;71462;50.650;6.888;2023-07-29T09:12:53;3.60;;;2.10;;
81960;SDS011;71462;50.650;6.888;2023-07-29T09:14:55;4.50;;;2.33;;
81960;SDS011;71462;50.650;6.888;2023-07-29T09:16:58;5.85;;;2.22;;
81960;SDS011;71462;50.650;6.888;2023-07-29T09:19:02;5.13;;;1.80;;
81960;SDS011;71462;50.650;6.888;2023-07-29T09:21:05;4.20;;;1.85;;
81960;SDS011;71462;50.650;6.888;2023-07-29T09:23:08;5.22;;;2.10;;
81960;SDS011;71462;50.650;6.888;2023-07-29T09:25:12;3.80;;;2.35;;
81960;SDS011;71462;50.650;6.888;2023-07-29T09:27:27;4.05;;;2.00;;
81960;SDS011;71462;50.650;6.888;2023-07-29T09:29:35;4.25;;;2.38;;
81960;SDS011;71462;50.650;6.888;2023-07-29T09:31:38;4.38;;;2.22;;
81960;SDS011;71462;50.650;6.888;2023-07-29T09:33:40;3.35;;;2.00;;
81960;SDS011;71462;50.650;6.888;2023-07-29T09:35:44;3.75;;;2.10;;
81960;SDS011;71462;50.650;6.888;2023-07-29T09:37:49;5.93;;;2.28;;
81960;SDS011;71462;50.650;6.888;2023-07-29T09:39:52;6.47;;;2.10;;
81960;SDS011;71462;50.650;6.888;2023-07-29T09:41:55;3.75;;;2.22;;
81960;SDS011;71462;50.650;6.888;2023-07-29T09:43:58;4.88;;;2.05;;
81960;SDS011;71462;50.650;6.888;2023-07-29T09:46:02;4.57;;;2.00;;
81960;SDS011;71462;50.650;6.888;2023-07-29T09:48:06;4.45;;;2.00;;
81960;SDS011;71462;50.650;6.888;2023-07-29T09:50:12;5.13;;;2.25;;
81960;SDS011;71462;50.650;6.888;2023-07-29T09:52:15;5.22;;;2.28;;
81960;SDS011;71462;50.650;6.888;2023-07-29T09:54:21;4.25;;;2.00;;
81960;SDS011;71462;50.650;6.888;2023-07-29T09:56:25;4.13;;;2.10;;
81960;SDS011;71462;50.650;6.888;2023-07-29T09:58:28;3.50;;;2.00;;
81960;SDS011;71462;50.650;6.888;2023-07-29T10:00:32;4.18;;;2.08;;
81960;SDS011;71462;50.650;6.888;2023-07-29T10:02:34;4.07;;;2.28;;
81960;SDS011;71462;50.650;6.888;2023-07-29T10:04:37;3.60;;;2.20;;
81960;SDS011;71462;50.650;6.888;2023-07-29T10:06:40;4.78;;;2.30;;
81960;SDS011;71462;50.650;6.888;2023-07-29T10:08:43;4.45;;;1.95;;
81960;SDS011;71462;50.650;6.888;2023-07-29T10:10:48;3.58;;;2.00;;
81960;SDS011;71462;50.650;6.888;2023-07-29T10:12:51;5.07;;;2.05;;
81960;SDS011;71462;50.650;6.888;2023-07-29T10:14:55;4.97;;;2.13;;
81960;SDS011;71462;50.650;6.888;2023-07-29T10:17:01;6.90;;;2.08;;
81960;SDS011;71462;50.650;6.888;2023-07-29T10:19:05;5.07;;;1.85;;
81960;SDS011;71462;50.650;6.888;2023-07-29T10:21:10;4.38;;;2.28;;
81960;SDS011;71462;50.650;6.888;2023-07-29T10:23:13;4.43;;;2.20;;
81960;SDS011;71462;50.650;6.888;2023-07-29T10:25:21;4.72;;;2.05;;
81960;SDS011;71462;50.650;6.888;2023-07-29T10:27:26;4.95;;;2.22;;
81960;SDS011;71462;50.650;6.888;2023-07-29T10:29:31;6.18;;;2.33;;
81960;SDS011;71462;50.650;6.888;2023-07-29T10:31:34;4.30;;;2.42;;
81960;SDS011;71462;50.650;6.888;2023-07-29T10:33:39;7.30;;;2.60;;
81960;SDS011;71462;50.650;6.888;2023-07-29T10:35:42;5.25;;;2.40;;
81960;SDS011;71462;50.650;6.888;2023-07-29T10:37:45;5.95;;;2.40;;
81960;SDS011;71462;50.650;6.888;2023-07-29T10:39:52;4.10;;;2.35;;
81960;SDS011;71462;50.650;6.888;2023-07-29T10:41:55;4.22;;;2.40;;
81960;SDS011;71462;50.650;6.888;2023-07-29T10:44:01;5.30;;;2.20;;
81960;SDS011;71462;50.650;6.888;2023-07-29T10:48:40;7.88;;;2.75;;
81960;SDS011;71462;50.650;6.888;2023-07-29T10:50:43;5.60;;;2.50;;
81960;SDS011;71462;50.650;6.888;2023-07-29T10:52:49;5.28;;;2.42;;
81960;SDS011;71462;50.650;6.888;2023-07-29T10:54:53;10.63;;;3.22;;
81960;SDS011;71462;50.650;6.888;2023-07-29T10:57:02;5.68;;;2.67;;
81960;SDS011;71462;50.650;6.888;2023-07-29T11:01:37;4.80;;;2.25;;
81960;SDS011;71462;50.650;6.888;2023-07-29T11:03:41;7.43;;;2.80;;
81960;SDS011;71462;50.650;6.888;2023-07-29T11:06:04;5.22;;;2.70;;
81960;SDS011;71462;50.650;6.888;2023-07-29T11:08:15;4.72;;;2.53;;
81960;SDS011;71462;50.650;6.888;2023-07-29T11:10:18;4.43;;;2.63;;
81960;SDS011;71462;50.650;6.888;2023-07-29T11:12:33;5.47;;;2.40;;
81960;SDS011;71462;50.650;6.888;2023-07-29T11:14:40;4.22;;;2.42;;
81960;SDS011;71462;50.650;6.888;2023-07-29T11:16:43;5.07;;;2.97;;
81960;SDS011;71462;50.650;6.888;2023-07-29T11:18:46;4.78;;;2.72;;
81960;SDS011;71462;50.650;6.888;2023-07-29T11:20:49;4.82;;;2.40;;
81960;SDS011;71462;50.650;6.888;2023-07-29T11:22:56;6.78;;;2.85;;
81960;SDS011;71462;50.650;6.888;2023-07-29T11:25:00;5.32;;;2.90;;
81960;SDS011;71462;50.650;6.888;2023-07-29T11:27:02;5.35;;;2.50;;
81960;SDS011;71462;50.650;6.888;2023-07-29T11:29:07;4.72;;;2.55;;
81960;SDS011;71462;50.650;6.888;2023-07-29T11:31:13;6.00;;;2.55;;
81960;SDS011;71462;50.650;6.888;2023-07-29T11:33:16;5.40;;;2.80;;
81960;SDS011;71462;50.650;6.888;2023-07-29T11:35:23;4.32;;;2.33;;
81960;SDS011;71462;50.650;6.888;2023-07-29T11:37:26;6.35;;;2.65;;
81960;SDS011;71462;50.650;6.888;2023-07-29T11:39:27;5.50;;;2.58;;
81960;SDS011;71462;50.650;6.888;2023-07-29T11:41:30;3.85;;;2.38;;
81960;SDS011;71462;50.650;6.888;2023-07-29T11:43:35;4.60;;;2.72;;
81960;SDS011;71462;50.650;6.888;2023-07-29T11:45:40;4.82;;;2.38;;
81960;SDS011;71462;50.650;6.888;2023-07-29T11:47:53;4.63;;;2.45;;
81960;SDS011;71462;50.650;6.888;2023-07-29T11:49:58;4.18;;;2.25;;
81960;SDS011;71462;50.650;6.888;2023-07-29T11:52:01;7.40;;;2.80;;
81960;SDS011;71462;50.650;6.888;2023-07-29T11:54:05;3.83;;;2.35;;
81960;SDS011;71462;50.650;6.888;2023-07-29T11:56:09;3.92;;;2.17;;
81960;SDS011;71462;50.650;6.888;2023-07-29T11:58:14;4.97;;;2.40;;
81960;SDS011;71462;50.650;6.888;2023-07-29T12:00:18;4.82;;;2.38;;
81960;SDS011;71462;50.650;6.888;2023-07-29T12:02:20;3.95;;;2.40;;
81960;SDS011;71462;50.650;6.888;2023-07-29T12:04:26;4.05;;;2.00;;
81960;SDS011;71462;50.650;6.888;2023-07-29T12:06:28;4.50;;;2.05;;
81960;SDS011;71462;50.650;6.888;2023-07-29T12:08:32;4.13;;;2.17;;
81960;SDS011;71462;50.650;6.888;2023-07-29T12:10:34;4.45;;;2.20;;
81960;SDS011;71462;50.650;6.888;2023-07-29T12:12:38;3.83;;;2.13;;
81960;SDS011;71462;50.650;6.888;2023-07-29T12:14:46;5.72;;;2.00;;
81960;SDS011;71462;50.650;6.888;2023-07-29T12:16:48;3.67;;;2.20;;
81960;SDS011;71462;50.650;6.888;2023-07-29T12:18:53;4.45;;;2.00;;
81960;SDS011;71462;50.650;6.888;2023-07-29T12:20:57;5.05;;;1.80;;
81960;SDS011;71462;50.650;6.888;2023-07-29T12:22:59;4.43;;;2.10;;
81960;SDS011;71462;50.650;6.888;2023-07-29T12:25:04;5.50;;;2.25;;
81960;SDS011;71462;50.650;6.888;2023-07-29T12:27:10;3.88;;;1.80;;
81960;SDS011;71462;50.650;6.888;2023-07-29T12:29:14;3.42;;;1.98;;
81960;SDS011;71462;50.650;6.888;2023-07-29T12:31:20;5.50;;;2.00;;
81960;SDS011;71462;50.650;6.888;2023-07-29T12:33:29;3.88;;;2.10;;